Tuesday, September 02, 2014
04:25 UTC
  |  Log In   |  Register Free
Airport Search:

Pearson Field Airport
(KVUO)

Pearson Field Airport Diagram
No Airport Diagram Available

FAA data valid effective July 24, 2014 until September 18, 2014 (unless otherwise noted).

 
 
 
 
 
 
 
 
 
 
 
 
 
 

Current Aviation Weather for Pearson Field Airport (KVUO)

The most recent METAR observation for KVUO was updated at: 0153 UTC
METAR Summary (Translated METAR)
KVUO
020153Z AUTO 34006KT 10SM FEW070 25/11 A2996 RMK AO2 SLP146 T02500111
KPDX
(3.1 nm SE from KVUO)
020153Z 33006KT 10SM FEW055 FEW090 26/13 A2997 RMK AO2 SLP146 T02560128 $
TAF Summary (Translated TAF)
KPDX
(3.1 nm SE from KVUO)
012109Z 0121/0218 30005KT P6SM SCT060 SCT090 FM012300 30007KT P6SM SCT050 BKN080 FM021000 31005KT P6SM FEW008 OVC015
KTTD
(11.5 nm SE from KVUO)
011759Z 0118/0218 VRB03KT P6SM SCT090 FM012000 29005KT P6SM SCT060 SCT090 FM012200 29006KT P6SM SCT050 BKN070 FM021000 31005KT P6SM FEW008 OVC015
  Airport Weather Conditions for KVUO

 Current Weather at VUO
71° F
Fair
Northwest winds at 8.1 mph
VUO NOAA Radar

Pressure: 29.96 in
Humidity: 57%
Wind: Northwest at 8.1 MPH (7 KT)
Dew Point: 55.0°F
Visibility: 10.00 mi


Airport Weather Forecast for KVUO

Translated METAR and TAF for KVUO
Translated METAR for KVUO (0418 UTC 02 September 2014)
found at http://aviationweather.gov/adds/metars/
 
METAR text: KVUO 020353Z AUTO 33007KT 10SM CLR 22/13 A2996 RMK AO2 SLP146 T02170128
Conditions at: KVUO (VANCOUVER , WA, US) observed 0353 UTC 02 September 2014
Temperature: 21.7°C (71°F)
Dewpoint: 12.8°C (55°F) [RH = 57%]
Pressure (altimeter): 29.96 inches Hg (1014.6 mb)
[Sea-level pressure: 1014.6 mb]
Winds: from the NNW (330 degrees) at 8 MPH (7 knots; 3.6 m/s)
Visibility: 10 or more miles (16+ km)
Ceiling: at least 12,000 feet AGL
Clouds: sky clear below 12,000 feet AGL
Weather: automated observation with no human augmentation;
there may or may not be significant weather present at this time
Translated TAF for KVUO

There is no translated TAF available for this airport

Find All Airport Services Find A Hotel Find A Rental Car Find A Golf Course Find A Restaurant $100 Hamburger



FBO's on the Field
FBO Company Facility Photos Services Transportation Aviation Fuel Prices: Prices include tax
Catering Weather Repair Courtesy Rental Type 100LL JetA JetA+ MOGAS 8087
 
Aero Maintenance Inc

This FBO has not yet been rated
FS:AirBP
Last Updated: Aug-13
Login to update fuel prices
SS:
Contact Aero Maintenance IncMore FBO Information
 
Add another FBO Facility Photos Catering Weather Repair Courtesy Rental Type 100LL JetA JetA+ MOGAS 8087
Services Transportation Aviation Fuel Prices: Prices include tax


GlobalAir.com Airport Resource Center model-print
model-print
model-print
model-print